Time;durP1;ratioP1;P1;durP2;ratioP2;P2;SDS_P1;SDS_P2;PMS_P1;PMS_P2;Temp;Humidity;BMP_temperature;BMP_pressure;BME280_temperature;BME280_humidity;BME280_pressure;Samples;Min_cycle;Max_cycle;Signal;HPM_P1;HPM_P2
2022/02/20 00:00:19;;;;;;;5.40;2.95;;;8.00;99.10;;;;;;5100641;27;20239;-65
2022/02/20 00:02:48;;;;;;;4.82;3.50;;;8.00;99.30;;;;;;5107197;28;20551;-65
2022/02/20 00:05:15;;;;;;;10.05;5.65;;;8.00;99.40;;;;;;5106940;28;20689;-65
2022/02/20 00:07:42;;;;;;;3.35;2.33;;;7.80;99.60;;;;;;5100077;28;20229;-65
2022/02/20 00:10:11;;;;;;;2.97;1.83;;;7.80;99.90;;;;;;5100167;28;20276;-65
2022/02/20 00:12:38;;;;;;;3.85;2.03;;;7.70;99.90;;;;;;5110990;27;20373;-65
2022/02/20 00:15:05;;;;;;;4.03;2.47;;;7.70;99.90;;;;;;5113941;27;20215;-66
2022/02/20 00:17:34;;;;;;;7.68;3.88;;;7.60;99.90;;;;;;5107642;28;20228;-65
2022/02/20 00:20:07;;;;;;;3.90;1.90;;;7.60;99.90;;;;;;5106273;28;20807;-65
2022/02/20 00:22:39;;;;;;;3.53;1.65;;;7.60;99.90;;;;;;5100335;28;20215;-65
2022/02/20 00:25:09;;;;;;;4.50;2.30;;;7.60;99.90;;;;;;5112128;28;20565;-66
2022/02/20 00:27:37;;;;;;;2.97;1.58;;;7.60;99.90;;;;;;5101823;28;20307;-65
2022/02/20 00:30:04;;;;;;;3.72;1.38;;;7.70;99.90;;;;;;5099936;28;20292;-65
2022/02/20 00:32:31;;;;;;;2.10;1.80;;;7.70;99.90;;;;;;5103514;27;20303;-66
2022/02/20 00:34:58;;;;;;;2.00;1.50;;;7.70;99.90;;;;;;5103990;28;20219;-66
2022/02/20 00:37:25;;;;;;;8.60;2.20;;;7.70;99.90;;;;;;5113132;27;20276;-65
2022/02/20 00:39:52;;;;;;;3.92;3.15;;;7.70;99.90;;;;;;5113052;27;20673;-65
2022/02/20 00:42:19;;;;;;;1.80;1.70;;;7.70;99.90;;;;;;5103139;28;20557;-65
2022/02/20 00:44:47;;;;;;;3.75;2.10;;;7.70;99.90;;;;;;5109386;27;20237;-65
2022/02/20 00:47:15;;;;;;;3.38;2.72;;;7.60;99.90;;;;;;5102299;28;20235;-65
2022/02/20 00:49:41;;;;;;;7.18;2.70;;;7.70;99.90;;;;;;5105573;28;20316;-65
2022/02/20 00:52:08;;;;;;;4.47;2.00;;;7.70;99.90;;;;;;5104551;28;20226;-65
2022/02/20 00:54:35;;;;;;;7.30;2.60;;;7.60;99.90;;;;;;5099123;28;20233;-65
2022/02/20 00:57:02;;;;;;;3.28;2.28;;;7.60;99.90;;;;;;5100968;28;20219;-65
2022/02/20 00:59:29;;;;;;;4.60;3.20;;;7.60;99.90;;;;;;5106430;28;20227;-65
2022/02/20 01:01:57;;;;;;;7.72;3.53;;;7.60;99.90;;;;;;5104731;28;20298;-66
2022/02/20 01:04:26;;;;;;;3.75;1.65;;;7.60;99.90;;;;;;5099305;28;20238;-66
2022/02/20 01:06:54;;;;;;;2.55;2.20;;;7.60;99.90;;;;;;5099175;28;20223;-64
2022/02/20 01:09:21;;;;;;;4.25;1.70;;;7.50;99.90;;;;;;5106053;28;20245;-65
2022/02/20 01:11:48;;;;;;;3.95;2.28;;;7.30;99.90;;;;;;5105839;28;20234;-64
2022/02/20 01:14:15;;;;;;;3.85;3.35;;;7.30;99.90;;;;;;5105346;27;20250;-64
2022/02/20 01:16:42;;;;;;;4.55;2.45;;;7.30;99.90;;;;;;5112435;28;20223;-65
2022/02/20 01:19:11;;;;;;;2.15;1.88;;;7.30;99.90;;;;;;5099111;28;20230;-65
2022/02/20 01:21:38;;;;;;;2.13;1.92;;;7.20;99.90;;;;;;5099639;28;20232;-65
2022/02/20 01:24:06;;;;;;;5.53;2.72;;;7.20;99.90;;;;;;5105141;28;20221;-65
2022/02/20 01:26:32;;;;;;;6.43;2.10;;;7.30;99.90;;;;;;5105889;28;20243;-65
2022/02/20 01:28:59;;;;;;;3.15;1.90;;;7.20;99.90;;;;;;5099494;28;20215;-65
2022/02/20 01:31:29;;;;;;;3.90;2.15;;;7.10;99.90;;;;;;5111050;27;20226;-66
2022/02/20 01:33:56;;;;;;;4.95;1.60;;;7.10;99.90;;;;;;5099784;28;20680;-66
2022/02/20 01:36:24;;;;;;;2.05;1.60;;;7.10;99.90;;;;;;5106949;27;20309;-65
2022/02/20 01:38:51;;;;;;;4.05;2.17;;;7.10;99.90;;;;;;5105715;28;20228;-65
2022/02/20 01:41:18;;;;;;;3.97;2.22;;;7.10;99.90;;;;;;5107096;28;20323;-65
2022/02/20 01:43:45;;;;;;;5.82;2.42;;;7.10;99.90;;;;;;5112225;27;20709;-65
2022/02/20 01:46:12;;;;;;;3.10;2.50;;;7.20;99.90;;;;;;5110752;28;20223;-65
2022/02/20 01:48:39;;;;;;;3.30;2.92;;;7.20;99.90;;;;;;5100964;28;20561;-65
2022/02/20 01:51:07;;;;;;;4.65;2.50;;;7.20;99.90;;;;;;5098988;28;20235;-65
2022/02/20 01:53:35;;;;;;;5.20;2.20;;;7.20;99.90;;;;;;5103133;28;20670;-66
2022/02/20 01:56:04;;;;;;;3.20;2.05;;;7.20;99.90;;;;;;5105358;28;20216;-65
2022/02/20 01:58:33;;;;;;;2.40;2.00;;;7.10;99.90;;;;;;5102620;28;20227;-66
2022/02/20 02:01:01;;;;;;;3.80;2.20;;;7.00;99.90;;;;;;5098367;28;20283;-65
2022/02/20 02:03:28;;;;;;;3.90;2.30;;;7.00;99.90;;;;;;5101296;28;20306;-66
2022/02/20 02:05:55;;;;;;;4.32;2.63;;;6.90;99.90;;;;;;5105280;28;20306;-66
2022/02/20 02:08:22;;;;;;;4.20;2.20;;;6.90;99.90;;;;;;5103786;28;20310;-65
2022/02/20 02:10:50;;;;;;;3.40;2.70;;;6.80;99.90;;;;;;5098578;28;20303;-66
2022/02/20 02:13:17;;;;;;;3.13;2.85;;;6.70;99.90;;;;;;5110776;27;20298;-66
2022/02/20 02:15:50;;;;;;;3.55;2.25;;;6.80;99.90;;;;;;5112034;28;20233;-65
2022/02/20 02:18:18;;;;;;;4.80;2.78;;;6.70;99.90;;;;;;5100403;28;20317;-65
2022/02/20 02:20:45;;;;;;;3.33;2.92;;;6.70;99.90;;;;;;5105026;28;20228;-65
2022/02/20 02:23:17;;;;;;;4.68;2.55;;;6.80;99.90;;;;;;5104423;28;20218;-65
2022/02/20 02:25:45;;;;;;;5.15;2.13;;;6.80;99.90;;;;;;5098243;28;20223;-66
2022/02/20 02:28:12;;;;;;;3.10;2.15;;;6.80;99.90;;;;;;5098986;28;20220;-65
2022/02/20 02:30:39;;;;;;;2.20;2.10;;;6.80;99.90;;;;;;5104937;28;20305;-64
2022/02/20 02:33:06;;;;;;;3.03;2.72;;;6.70;99.90;;;;;;5104964;28;20380;-65
2022/02/20 02:35:33;;;;;;;3.03;2.10;;;6.70;99.90;;;;;;5100498;28;20681;-64
2022/02/20 02:38:00;;;;;;;2.85;2.20;;;6.70;99.90;;;;;;5109215;27;20227;-64
2022/02/20 02:40:28;;;;;;;2.20;2.00;;;6.70;99.90;;;;;;5103844;28;20288;-64
2022/02/20 02:42:57;;;;;;;3.75;2.05;;;6.60;99.90;;;;;;5113214;28;20220;-64
2022/02/20 02:45:27;;;;;;;5.60;1.92;;;6.60;99.90;;;;;;5115719;28;20223;-65
2022/02/20 02:47:54;;;;;;;3.58;2.45;;;6.50;99.90;;;;;;5101600;28;20226;-65
2022/02/20 02:50:21;;;;;;;3.30;1.95;;;6.50;99.90;;;;;;5105721;28;20228;-64
2022/02/20 02:52:47;;;;;;;4.18;2.50;;;6.40;99.90;;;;;;5108244;28;20469;-64
2022/02/20 02:55:14;;;;;;;5.95;2.05;;;6.40;99.90;;;;;;5105646;28;20223;-64
2022/02/20 02:57:42;;;;;;;3.55;2.38;;;6.40;99.90;;;;;;5101692;28;20231;-64
2022/02/20 03:00:10;;;;;;;2.80;2.25;;;6.30;99.90;;;;;;5104235;28;20524;-65
2022/02/20 03:02:37;;;;;;;2.42;2.22;;;6.40;99.90;;;;;;5108876;28;20234;-64
2022/02/20 03:05:04;;;;;;;2.42;2.22;;;6.40;99.90;;;;;;5106013;28;20223;-65
2022/02/20 03:07:31;;;;;;;3.42;2.22;;;6.40;99.90;;;;;;5101416;28;20223;-65
2022/02/20 03:09:58;;;;;;;3.88;2.58;;;6.40;99.90;;;;;;5103046;28;20228;-65
2022/02/20 03:12:31;;;;;;;4.28;2.78;;;6.40;99.90;;;;;;5111667;28;20222;-64
2022/02/20 03:14:59;;;;;;;4.82;4.20;;;6.40;99.90;;;;;;5114812;27;20219;-64
2022/02/20 03:17:26;;;;;;;2.50;2.30;;;6.40;99.90;;;;;;5110340;28;20231;-64
2022/02/20 03:19:58;;;;;;;2.88;2.60;;;6.40;99.90;;;;;;5105912;28;20253;-65
2022/02/20 03:22:28;;;;;;;4.63;2.15;;;6.50;99.90;;;;;;5100807;28;20231;-65
2022/02/20 03:24:55;;;;;;;11.80;8.48;;;6.50;99.90;;;;;;5101186;28;20228;-64
2022/02/20 03:27:21;;;;;;;4.50;3.53;;;6.50;99.90;;;;;;5101449;28;20227;-64
2022/02/20 03:29:50;;;;;;;12.57;10.38;;;6.40;99.90;;;;;;5114195;27;20568;-64
2022/02/20 03:32:18;;;;;;;7.05;4.40;;;6.40;99.90;;;;;;5102106;28;20229;-65
2022/02/20 03:34:45;;;;;;;3.28;2.80;;;6.40;99.90;;;;;;5100996;28;20223;-64
2022/02/20 03:37:12;;;;;;;2.20;2.00;;;6.50;99.90;;;;;;5114196;27;20219;-64
2022/02/20 03:39:39;;;;;;;4.25;2.72;;;6.50;99.90;;;;;;5102957;27;20232;-65
2022/02/20 03:42:06;;;;;;;4.03;2.03;;;6.60;99.90;;;;;;5114167;28;20227;-64
2022/02/20 03:44:33;;;;;;;2.60;2.38;;;6.50;99.90;;;;;;5112638;28;20250;-65
2022/02/20 03:46:59;;;;;;;6.32;2.83;;;6.50;99.90;;;;;;5104762;28;20569;-64
2022/02/20 03:49:30;;;;;;;2.85;1.98;;;6.50;99.90;;;;;;5107625;27;20227;-64
2022/02/20 03:52:04;;;;;;;2.50;2.22;;;6.50;99.90;;;;;;5103334;27;20223;-64
2022/02/20 03:54:31;;;;;;;2.80;2.42;;;6.50;99.90;;;;;;5100977;28;20627;-65
2022/02/20 03:56:58;;;;;;;2.88;2.40;;;6.50;99.90;;;;;;5102527;28;20232;-65
2022/02/20 03:59:25;;;;;;;3.97;3.55;;;6.50;99.90;;;;;;5106849;28;20302;-64
2022/02/20 04:01:56;;;;;;;1.90;1.80;;;6.60;99.90;;;;;;5105440;28;20239;-65
2022/02/20 04:04:22;;;;;;;7.88;6.32;;;6.60;99.90;;;;;;5100452;28;20227;-64
2022/02/20 04:06:51;;;;;;;4.53;2.15;;;6.70;99.90;;;;;;5101240;28;20228;-65
2022/02/20 04:09:18;;;;;;;1.65;1.55;;;6.70;99.90;;;;;;5106869;28;20219;-64
2022/02/20 04:11:45;;;;;;;2.75;1.80;;;6.70;99.90;;;;;;5106999;28;20219;-64
2022/02/20 04:14:12;;;;;;;3.80;2.60;;;6.70;99.90;;;;;;5111606;27;20238;-64
2022/02/20 04:16:39;;;;;;;4.32;2.00;;;6.60;99.90;;;;;;5107768;28;20219;-64
2022/02/20 04:19:06;;;;;;;2.10;1.60;;;6.50;99.90;;;;;;5111246;28;20265;-64
2022/02/20 04:21:32;;;;;;;2.58;1.85;;;6.60;99.90;;;;;;5101917;27;20219;-64
2022/02/20 04:24:01;;;;;;;2.83;2.25;;;6.50;99.90;;;;;;5106608;28;20693;-64
2022/02/20 04:26:27;;;;;;;2.65;2.45;;;6.50;99.90;;;;;;5105789;28;20677;-64
2022/02/20 04:28:54;;;;;;;3.20;2.40;;;6.60;99.90;;;;;;5099899;28;20234;-64
2022/02/20 04:31:21;;;;;;;2.22;1.88;;;6.60;99.90;;;;;;5100564;28;20308;-64
2022/02/20 04:33:48;;;;;;;2.30;2.10;;;6.60;99.90;;;;;;5106894;28;20216;-64
2022/02/20 04:36:15;;;;;;;9.45;5.45;;;6.70;99.90;;;;;;5111904;27;20215;-64
2022/02/20 04:38:42;;;;;;;2.33;2.08;;;6.70;99.90;;;;;;5113283;28;20222;-64
2022/02/20 04:41:10;;;;;;;2.72;2.53;;;6.80;99.90;;;;;;5099476;28;20223;-64
2022/02/20 04:43:37;;;;;;;2.28;1.60;;;6.90;99.90;;;;;;5102515;28;20310;-64
2022/02/20 04:46:04;;;;;;;1.70;1.60;;;6.90;99.90;;;;;;5112687;27;20215;-64
2022/02/20 04:48:31;;;;;;;3.08;2.60;;;6.90;99.90;;;;;;5100553;28;20467;-64
2022/02/20 04:50:58;;;;;;;6.80;4.80;;;7.00;99.90;;;;;;5099309;27;20224;-65
2022/02/20 04:53:25;;;;;;;2.80;2.60;;;7.00;99.90;;;;;;5105174;28;20224;-65
2022/02/20 04:55:57;;;;;;;13.15;8.88;;;7.10;99.90;;;;;;5106580;28;20531;-65
2022/02/20 04:58:26;;;;;;;8.73;6.18;;;7.10;99.90;;;;;;5101088;28;21055;-65
2022/02/20 05:00:52;;;;;;;3.05;2.85;;;7.10;99.90;;;;;;5098916;28;20624;-65
2022/02/20 05:03:19;;;;;;;4.07;3.47;;;7.20;99.90;;;;;;5103306;28;20227;-65
2022/02/20 05:05:46;;;;;;;3.58;3.28;;;7.10;99.90;;;;;;5106354;28;20227;-65
2022/02/20 05:08:13;;;;;;;5.20;4.68;;;7.20;99.90;;;;;;5101932;28;20231;-64
2022/02/20 05:10:40;;;;;;;3.42;3.03;;;7.20;99.90;;;;;;5099299;28;20223;-64
2022/02/20 05:13:06;;;;;;;2.65;2.45;;;7.20;99.90;;;;;;5111438;27;20692;-64
2022/02/20 05:15:35;;;;;;;3.75;3.17;;;7.30;99.90;;;;;;5112820;28;20233;-64
2022/02/20 05:18:01;;;;;;;2.45;2.20;;;7.30;99.90;;;;;;5104238;28;20223;-65
2022/02/20 05:20:28;;;;;;;5.00;4.18;;;7.30;99.90;;;;;;5110026;28;20231;-65
2022/02/20 05:22:55;;;;;;;3.20;2.80;;;7.30;99.90;;;;;;5102244;28;20211;-65
2022/02/20 05:25:22;;;;;;;3.38;2.38;;;7.30;99.90;;;;;;5098778;28;20563;-65
2022/02/20 05:27:49;;;;;;;3.65;3.33;;;7.30;99.90;;;;;;5103076;28;20239;-66
2022/02/20 05:30:19;;;;;;;6.00;2.83;;;7.40;99.90;;;;;;5105403;28;20227;-65
2022/02/20 05:32:48;;;;;;;2.00;1.80;;;7.40;99.90;;;;;;5103592;28;20293;-65
2022/02/20 05:35:14;;;;;;;2.25;2.05;;;7.40;99.90;;;;;;5098658;28;20553;-65
2022/02/20 05:37:43;;;;;;;2.55;1.83;;;7.40;99.90;;;;;;5112579;27;20253;-65
2022/02/20 05:40:12;;;;;;;2.90;2.53;;;7.40;99.90;;;;;;5106446;28;20219;-65
2022/02/20 05:42:39;;;;;;;7.13;4.88;;;7.50;99.90;;;;;;5103899;28;20233;-66
2022/02/20 05:45:07;;;;;;;3.35;3.00;;;7.50;99.90;;;;;;5111684;28;20223;-64
2022/02/20 05:47:34;;;;;;;3.75;3.25;;;7.50;99.90;;;;;;5099289;28;20227;-65
2022/02/20 05:50:02;;;;;;;3.63;3.00;;;7.50;99.90;;;;;;5099516;28;20215;-66
2022/02/20 05:52:29;;;;;;;4.22;3.72;;;7.50;99.90;;;;;;5111365;28;20823;-65
2022/02/20 05:54:56;;;;;;;4.40;4.10;;;7.50;99.90;;;;;;5100039;28;20215;-65
2022/02/20 05:57:23;;;;;;;5.10;3.42;;;7.40;99.90;;;;;;5110995;28;20234;-64
2022/02/20 05:59:50;;;;;;;6.53;5.43;;;7.50;99.90;;;;;;5100185;28;20250;-65
2022/02/20 06:02:17;;;;;;;4.15;2.97;;;7.40;99.90;;;;;;5098448;28;20220;-65
2022/02/20 06:04:44;;;;;;;4.70;4.05;;;7.40;99.90;;;;;;5104132;28;20236;-66
2022/02/20 06:07:12;;;;;;;3.20;2.90;;;7.40;99.90;;;;;;5105120;28;20223;-65
2022/02/20 06:09:39;;;;;;;11.98;9.13;;;7.40;99.90;;;;;;5101374;28;20237;-64
2022/02/20 06:12:06;;;;;;;5.20;3.88;;;7.40;99.90;;;;;;5101813;28;20223;-66
2022/02/20 06:14:33;;;;;;;2.80;2.60;;;7.40;99.90;;;;;;5116219;27;20215;-65
2022/02/20 06:17:00;;;;;;;4.68;3.88;;;7.40;99.90;;;;;;5115398;27;20684;-66
2022/02/20 06:19:27;;;;;;;10.70;7.97;;;7.30;99.90;;;;;;5103235;28;20227;-65
2022/02/20 06:21:59;;;;;;;4.18;2.80;;;7.40;99.90;;;;;;5114663;27;20592;-65
2022/02/20 06:24:28;;;;;;;2.90;2.60;;;7.40;99.90;;;;;;5104678;28;20528;-64
2022/02/20 06:26:54;;;;;;;2.97;2.67;;;7.30;99.90;;;;;;5102295;28;20301;-66
2022/02/20 06:29:21;;;;;;;8.68;7.72;;;7.30;99.90;;;;;;5105102;27;20616;-66
2022/02/20 06:31:48;;;;;;;7.72;5.25;;;7.30;99.90;;;;;;5092834;28;20219;-65
2022/02/20 06:34:15;;;;;;;6.90;5.95;;;7.40;99.90;;;;;;5093812;28;20249;-65
2022/02/20 06:36:42;;;;;;;3.60;3.30;;;7.40;99.90;;;;;;5095786;28;20230;-65
2022/02/20 06:39:10;;;;;;;12.93;8.68;;;7.40;99.90;;;;;;5095689;28;20223;-66
2022/02/20 06:41:38;;;;;;;3.67;3.28;;;7.40;99.90;;;;;;5095290;28;20241;-65
2022/02/20 06:44:05;;;;;;;2.90;2.55;;;7.40;99.90;;;;;;5095658;28;20215;-65
2022/02/20 06:46:32;;;;;;;6.80;5.10;;;7.40;99.90;;;;;;5095306;28;20653;-65
2022/02/20 06:48:59;;;;;;;11.07;8.43;;;7.40;99.90;;;;;;5095436;28;20211;-65
2022/02/20 06:51:28;;;;;;;4.88;4.03;;;7.40;99.90;;;;;;5094955;28;20231;-66
2022/02/20 06:53:55;;;;;;;6.93;5.18;;;7.50;99.90;;;;;;5095440;28;20216;-65
2022/02/20 06:56:22;;;;;;;5.40;4.55;;;7.50;99.90;;;;;;5094748;28;20232;-64
2022/02/20 06:58:50;;;;;;;4.18;3.65;;;7.50;99.90;;;;;;5095217;28;20310;-64
2022/02/20 07:01:17;;;;;;;7.50;5.55;;;7.60;99.90;;;;;;5094997;28;20278;-65
2022/02/20 07:03:44;;;;;;;5.13;4.63;;;7.60;99.90;;;;;;5095259;28;20222;-65
2022/02/20 07:06:11;;;;;;;4.90;3.90;;;7.60;99.90;;;;;;5095233;28;20215;-66
2022/02/20 07:08:38;;;;;;;7.28;6.57;;;7.60;99.90;;;;;;5094777;28;20230;-65
2022/02/20 07:11:05;;;;;;;6.15;5.55;;;7.60;99.90;;;;;;5094967;28;20220;-64
2022/02/20 07:13:32;;;;;;;4.45;4.05;;;7.60;99.90;;;;;;5094722;28;20224;-64
2022/02/20 07:16:00;;;;;;;3.40;3.10;;;7.70;99.90;;;;;;5095147;28;20211;-64
2022/02/20 07:18:27;;;;;;;2.83;2.63;;;7.70;99.90;;;;;;5094506;28;20235;-65
2022/02/20 07:20:54;;;;;;;2.95;2.75;;;7.70;99.90;;;;;;5094991;28;20674;-64
2022/02/20 07:23:21;;;;;;;4.75;4.10;;;7.80;99.90;;;;;;5093282;28;20228;-65
2022/02/20 07:25:47;;;;;;;4.80;3.90;;;7.80;99.90;;;;;;5094857;28;20243;-65
2022/02/20 07:28:14;;;;;;;3.38;3.15;;;7.80;99.90;;;;;;5094877;28;20228;-64
2022/02/20 07:30:41;;;;;;;5.93;5.32;;;7.80;99.90;;;;;;5094227;28;20220;-66
2022/02/20 07:33:12;;;;;;;3.92;3.38;;;7.80;99.90;;;;;;5094716;28;20271;-65
2022/02/20 07:35:40;;;;;;;5.45;4.95;;;7.80;99.90;;;;;;5094299;28;20636;-64
2022/02/20 07:38:07;;;;;;;4.28;3.88;;;7.80;99.90;;;;;;5094570;28;20220;-65
2022/02/20 07:40:34;;;;;;;4.70;4.32;;;7.80;99.90;;;;;;5093895;28;20231;-65
2022/02/20 07:43:01;;;;;;;4.38;3.97;;;7.80;99.90;;;;;;5094722;28;20228;-65
2022/02/20 07:45:28;;;;;;;5.40;4.50;;;7.80;99.90;;;;;;5093910;28;20662;-65
2022/02/20 07:47:56;;;;;;;6.03;4.75;;;7.80;99.90;;;;;;5094363;28;20223;-65
2022/02/20 07:50:27;;;;;;;3.63;3.33;;;7.90;99.90;;;;;;5093938;28;20235;-66
2022/02/20 07:52:54;;;;;;;6.38;5.78;;;7.90;99.90;;;;;;5094308;28;20228;-64
2022/02/20 07:55:22;;;;;;;11.23;9.30;;;7.90;99.90;;;;;;5093709;28;20216;-65
2022/02/20 07:57:49;;;;;;;6.43;5.72;;;7.90;99.90;;;;;;5094068;28;20238;-65
2022/02/20 08:00:18;;;;;;;6.68;6.05;;;7.90;99.90;;;;;;5093946;28;20227;-66
2022/02/20 08:02:45;;;;;;;5.75;5.25;;;7.90;99.90;;;;;;5093833;28;20211;-66
2022/02/20 08:05:12;;;;;;;5.90;5.30;;;7.90;99.90;;;;;;5094154;28;20220;-65
2022/02/20 08:07:40;;;;;;;5.82;4.97;;;8.00;99.90;;;;;;5093552;28;20412;-66
2022/02/20 08:10:08;;;;;;;5.53;5.07;;;7.90;99.90;;;;;;5093772;28;20219;-63
2022/02/20 08:12:35;;;;;;;6.47;5.85;;;8.00;99.90;;;;;;5093613;28;20227;-64
2022/02/20 08:15:06;;;;;;;5.57;4.60;;;8.00;99.90;;;;;;5094144;28;20620;-64
2022/02/20 08:17:33;;;;;;;6.30;5.80;;;8.00;99.90;;;;;;5093416;28;20224;-64
2022/02/20 08:20:00;;;;;;;7.43;5.75;;;8.00;99.90;;;;;;5093743;28;20235;-64
2022/02/20 08:22:27;;;;;;;5.25;4.82;;;8.10;99.90;;;;;;5093157;28;20655;-64
2022/02/20 08:24:55;;;;;;;6.63;5.95;;;8.10;99.90;;;;;;5093766;28;20554;-64
2022/02/20 08:27:22;;;;;;;11.48;8.43;;;8.20;99.90;;;;;;5093701;28;20230;-64
2022/02/20 08:29:48;;;;;;;7.55;6.85;;;8.20;99.90;;;;;;5096927;27;20395;-65
2022/02/20 08:32:15;;;;;;;7.20;6.50;;;8.20;99.90;;;;;;5113643;27;20230;-65
2022/02/20 08:34:42;;;;;;;7.10;6.15;;;8.20;99.90;;;;;;5112846;27;20227;-65
2022/02/20 08:37:09;;;;;;;6.90;6.20;;;8.20;99.90;;;;;;5113498;27;20681;-65
2022/02/20 08:39:36;;;;;;;5.65;5.20;;;8.20;99.90;;;;;;5113115;27;20220;-66
2022/02/20 08:42:05;;;;;;;5.97;5.50;;;8.20;99.90;;;;;;5113633;27;20234;-65
2022/02/20 08:44:34;;;;;;;8.90;7.20;;;8.30;99.90;;;;;;5113241;27;20588;-65
2022/02/20 08:47:01;;;;;;;6.57;6.00;;;8.30;99.90;;;;;;5113564;27;20550;-65
2022/02/20 08:49:28;;;;;;;7.45;6.38;;;8.30;99.90;;;;;;5113015;27;20571;-65
2022/02/20 08:51:56;;;;;;;6.95;6.22;;;8.30;99.90;;;;;;5113405;27;20223;-65
2022/02/20 08:54:22;;;;;;;6.90;6.25;;;8.40;99.90;;;;;;5113440;27;20219;-65
2022/02/20 08:56:50;;;;;;;5.90;5.38;;;8.40;99.90;;;;;;5112678;27;20223;-65
2022/02/20 08:59:18;;;;;;;5.30;4.80;;;8.40;99.90;;;;;;5113260;27;20219;-65
2022/02/20 09:01:44;;;;;;;4.97;4.63;;;8.50;99.90;;;;;;5112919;27;20246;-66
2022/02/20 09:04:13;;;;;;;5.30;4.90;;;8.50;99.90;;;;;;5113039;27;20223;-65
2022/02/20 09:06:40;;;;;;;8.05;5.57;;;8.60;99.90;;;;;;5112838;27;20230;-65
2022/02/20 09:09:07;;;;;;;5.82;5.32;;;8.60;99.90;;;;;;5113138;27;20257;-65
2022/02/20 09:11:34;;;;;;;4.72;4.40;;;8.60;99.90;;;;;;5112313;27;20234;-65
2022/02/20 09:14:01;;;;;;;5.50;5.03;;;8.60;99.90;;;;;;5113153;27;20813;-65
2022/02/20 09:16:29;;;;;;;5.13;4.50;;;8.70;99.90;;;;;;5112851;27;20222;-65
2022/02/20 09:18:57;;;;;;;5.00;4.60;;;8.70;99.90;;;;;;5112753;27;20305;-65
2022/02/20 09:21:24;;;;;;;5.50;5.10;;;8.80;99.90;;;;;;5112571;27;20226;-65
2022/02/20 09:23:51;;;;;;;4.95;4.55;;;8.80;99.90;;;;;;5112509;27;20234;-64
2022/02/20 09:26:18;;;;;;;5.45;5.05;;;8.80;99.90;;;;;;5112910;27;20302;-66
2022/02/20 09:28:44;;;;;;;5.82;5.30;;;8.80;99.90;;;;;;5112332;27;20302;-64
2022/02/20 09:31:11;;;;;;;6.40;5.20;;;8.80;99.90;;;;;;5113010;27;20230;-64
2022/02/20 09:33:40;;;;;;;5.60;5.10;;;8.90;99.90;;;;;;5112296;27;20692;-65
2022/02/20 09:36:07;;;;;;;5.25;4.75;;;8.90;99.90;;;;;;5112795;27;20227;-65
2022/02/20 09:38:35;;;;;;;5.85;5.35;;;8.90;99.90;;;;;;5112138;27;20234;-65
2022/02/20 09:41:02;;;;;;;6.07;5.55;;;8.90;99.90;;;;;;5112798;27;20223;-65
2022/02/20 09:43:29;;;;;;;5.88;5.38;;;8.90;99.90;;;;;;5112229;27;20234;-65
2022/02/20 09:45:57;;;;;;;6.43;5.50;;;9.00;99.90;;;;;;5114727;27;20431;-65
2022/02/20 09:48:24;;;;;;;6.32;5.80;;;9.00;99.90;;;;;;5117013;27;20280;-64
2022/02/20 09:50:53;;;;;;;15.00;6.60;;;9.00;99.90;;;;;;5116268;27;20700;-65
2022/02/20 09:53:20;;;;;;;6.07;5.57;;;9.00;99.90;;;;;;5116684;27;20740;-64
2022/02/20 09:55:47;;;;;;;6.80;6.20;;;9.00;99.90;;;;;;5116269;27;20227;-64
2022/02/20 09:58:16;;;;;;;8.15;7.45;;;9.10;99.90;;;;;;5116608;27;20231;-64
2022/02/20 10:00:53;;;;;;;9.15;8.25;;;9.10;99.90;;;;;;5115915;27;20230;-65
2022/02/20 10:03:31;;;;;;;7.75;7.07;;;9.10;99.90;;;;;;5116664;27;20219;-65
2022/02/20 10:06:00;;;;;;;8.63;7.72;;;9.10;99.90;;;;;;5116205;27;20222;-65
2022/02/20 10:08:28;;;;;;;8.57;7.78;;;9.10;99.90;;;;;;5116592;27;20305;-65
2022/02/20 10:11:12;;;;;;;8.10;7.35;;;9.10;99.90;;;;;;5115941;27;20219;-65
2022/02/20 10:13:39;;;;;;;8.20;7.50;;;9.10;99.90;;;;;;5115915;27;20230;-64
2022/02/20 10:16:21;;;;;;;9.98;6.85;;;9.00;99.90;;;;;;5116370;27;20222;-65
2022/02/20 10:18:50;;;;;;;7.30;6.60;;;9.10;99.90;;;;;;5115785;27;20223;-64
2022/02/20 10:21:20;;;;;;;5.72;5.32;;;9.10;99.90;;;;;;5116223;27;20333;-65
2022/02/20 10:23:47;;;;;;;6.65;6.05;;;9.10;99.90;;;;;;5115659;27;20634;-65
2022/02/20 10:26:16;;;;;;;5.18;4.35;;;9.10;99.90;;;;;;5116296;27;20223;-65
2022/02/20 10:29:04;;;;;;;6.18;5.57;;;9.10;99.90;;;;;;5115799;27;20605;-65
2022/02/20 10:31:42;;;;;;;6.13;5.50;;;9.10;99.90;;;;;;5116203;27;20223;-65
2022/02/20 10:34:11;;;;;;;6.55;5.88;;;9.10;99.90;;;;;;5116048;27;21277;-65
2022/02/20 10:36:52;;;;;;;6.05;5.55;;;9.10;99.90;;;;;;5116018;27;20223;-64
2022/02/20 10:39:27;;;;;;;5.70;5.20;;;9.20;99.90;;;;;;5115494;27;20245;-63
2022/02/20 10:41:55;;;;;;;6.57;5.95;;;9.20;99.90;;;;;;5115918;27;20277;-64
2022/02/20 10:44:22;;;;;;;7.03;6.38;;;9.20;99.90;;;;;;5115763;27;20251;-65
2022/02/20 10:46:51;;;;;;;8.27;7.50;;;9.30;99.90;;;;;;5115805;27;20219;-65
2022/02/20 10:49:26;;;;;;;8.30;7.50;;;9.20;99.90;;;;;;5115356;27;20339;-65
2022/02/20 10:51:55;;;;;;;10.95;9.88;;;9.20;99.90;;;;;;5115843;27;20218;-66
2022/02/20 10:54:21;;;;;;;12.48;11.25;;;9.30;99.90;;;;;;5115324;27;20226;-65
2022/02/20 10:56:50;;;;;;;8.65;7.78;;;9.30;99.90;;;;;;5115217;27;20305;-64
2022/02/20 10:59:20;;;;;;;7.78;6.97;;;9.40;99.90;;;;;;5115213;27;20226;-65
2022/02/20 11:01:47;;;;;;;7.72;7.03;;;9.40;99.90;;;;;;5115250;27;20223;-65
2022/02/20 11:04:15;;;;;;;6.38;5.88;;;9.40;99.90;;;;;;5115133;27;20219;-65
2022/02/20 11:06:44;;;;;;;5.78;5.03;;;9.40;99.90;;;;;;5115801;27;20238;-65
2022/02/20 11:09:13;;;;;;;5.20;4.90;;;9.40;99.90;;;;;;5114857;27;20215;-65
2022/02/20 11:11:42;;;;;;;5.72;5.28;;;9.40;99.90;;;;;;5115432;27;20222;-64
2022/02/20 11:14:11;;;;;;;6.18;5.15;;;9.50;99.90;;;;;;5114855;27;20302;-64
2022/02/20 11:16:46;;;;;;;6.18;5.55;;;9.50;99.90;;;;;;5115247;27;20746;-66
2022/02/20 11:19:15;;;;;;;9.07;8.00;;;9.50;99.90;;;;;;5114874;27;20545;-65
2022/02/20 11:21:44;;;;;;;12.40;11.18;;;9.50;99.90;;;;;;5114995;27;20228;-65
2022/02/20 11:24:13;;;;;;;12.10;10.57;;;9.40;99.90;;;;;;5114698;27;20541;-65
2022/02/20 11:26:43;;;;;;;7.25;5.97;;;9.50;99.90;;;;;;5115035;27;20354;-65
2022/02/20 11:29:10;;;;;;;5.30;4.90;;;9.40;99.90;;;;;;5114563;27;20281;-65
2022/02/20 11:31:39;;;;;;;7.28;6.68;;;9.40;99.90;;;;;;5115043;27;20242;-65
2022/02/20 11:34:07;;;;;;;5.50;5.00;;;9.30;99.90;;;;;;5114641;27;20313;-65
2022/02/20 11:36:34;;;;;;;5.60;5.00;;;9.30;99.90;;;;;;5114783;27;20216;-65
2022/02/20 11:39:07;;;;;;;5.93;4.13;;;9.30;99.90;;;;;;5114348;28;20321;-65
2022/02/20 11:41:37;;;;;;;3.95;3.65;;;9.20;99.90;;;;;;5114646;27;20245;-65
2022/02/20 11:44:22;;;;;;;4.28;3.90;;;9.10;99.90;;;;;;5114174;28;20307;-65
2022/02/20 11:46:51;;;;;;;3.20;2.90;;;8.90;99.90;;;;;;5114741;28;20225;-66
2022/02/20 11:49:36;;;;;;;5.07;4.63;;;8.80;99.90;;;;;;5114156;27;20234;-65
2022/02/20 11:52:08;;;;;;;4.18;3.78;;;8.80;99.90;;;;;;5114078;27;20223;-65
2022/02/20 11:54:37;;;;;;;4.78;3.58;;;8.70;99.90;;;;;;5114476;28;20230;-65
2022/02/20 11:57:30;;;;;;;8.25;4.50;;;8.70;99.90;;;;;;5113880;28;20559;-65
2022/02/20 12:00:20;;;;;;;4.38;3.97;;;8.70;99.90;;;;;;5099010;28;20476;-64
2022/02/20 12:03:05;;;;;;;4.18;3.78;;;8.70;99.90;;;;;;5114356;28;20734;-64
2022/02/20 12:05:33;;;;;;;4.10;3.70;;;8.60;99.90;;;;;;5114125;28;20250;-65
2022/02/20 12:08:04;;;;;;;4.35;3.28;;;8.70;99.90;;;;;;5113325;28;20219;-66
2022/02/20 12:10:32;;;;;;;4.68;3.50;;;8.60;99.90;;;;;;5114244;28;20723;-65
2022/02/20 12:13:29;;;;;;;4.82;3.42;;;8.40;99.90;;;;;;5113812;28;20856;-65
2022/02/20 12:15:56;;;;;;;9.82;8.05;;;8.30;99.90;;;;;;5093252;28;20227;-66
2022/02/20 12:18:28;;;;;;;9.50;7.28;;;8.20;99.90;;;;;;5093460;28;20224;-65
2022/02/20 12:21:14;;;;;;;6.55;5.80;;;8.10;99.90;;;;;;5093171;28;20228;-65
2022/02/20 12:23:49;;;;;;;4.45;4.05;;;8.00;99.90;;;;;;5093525;28;20227;-65
2022/02/20 12:26:44;;;;;;;4.93;3.55;;;7.90;99.90;;;;;;5093447;28;20215;-65
2022/02/20 12:29:14;;;;;;;6.65;4.35;;;7.90;99.90;;;;;;5093133;28;20239;-65
2022/02/20 12:32:02;;;;;;;4.13;3.83;;;7.90;99.90;;;;;;5093221;28;20682;-65
2022/02/20 12:34:51;;;;;;;4.65;4.15;;;7.90;99.90;;;;;;5093554;28;20257;-65
2022/02/20 12:37:21;;;;;;;5.25;4.85;;;7.90;99.90;;;;;;5095831;28;20230;-65
2022/02/20 12:39:53;;;;;;;4.93;4.15;;;7.90;99.90;;;;;;5113338;28;20215;-65
2022/02/20 12:42:20;;;;;;;8.05;6.55;;;8.00;99.90;;;;;;5113316;28;20227;-64
2022/02/20 12:44:49;;;;;;;8.15;7.35;;;8.00;99.90;;;;;;5113616;28;20229;-65
2022/02/20 12:47:17;;;;;;;7.80;7.10;;;8.10;99.90;;;;;;5113154;28;20218;-65
2022/02/20 12:49:51;;;;;;;6.85;6.10;;;8.10;99.90;;;;;;5113283;28;20233;-65
2022/02/20 12:52:18;;;;;;;6.93;5.38;;;8.10;99.90;;;;;;5112958;28;20302;-65
2022/02/20 12:54:46;;;;;;;6.47;5.82;;;8.10;99.90;;;;;;5113374;28;20211;-65
2022/02/20 12:57:13;;;;;;;5.80;5.35;;;8.10;99.90;;;;;;5113008;28;20294;-65
2022/02/20 12:59:55;;;;;;;9.00;6.07;;;8.10;99.90;;;;;;5113057;28;20922;-65
2022/02/20 13:02:33;;;;;;;5.65;5.15;;;8.20;99.90;;;;;;5112878;28;20251;-65